sensor_id;sensor_type;location;lat;lon;timestamp;P1;durP1;ratioP1;P2;durP2;ratioP2
15246;SDS011;7726;48.820;9.248;2023-01-05T00:00:51;0.30;;;0.30;;
15246;SDS011;7726;48.820;9.248;2023-01-05T00:03:18;0.63;;;0.40;;
15246;SDS011;7726;48.820;9.248;2023-01-05T00:05:45;0.30;;;0.30;;
15246;SDS011;7726;48.820;9.248;2023-01-05T00:08:12;0.30;;;0.30;;
15246;SDS011;7726;48.820;9.248;2023-01-05T00:10:41;0.33;;;0.33;;
15246;SDS011;7726;48.820;9.248;2023-01-05T00:13:25;0.40;;;0.30;;
15246;SDS011;7726;48.820;9.248;2023-01-05T00:16:11;0.70;;;0.20;;
15246;SDS011;7726;48.820;9.248;2023-01-05T00:18:56;0.40;;;0.40;;
15246;SDS011;7726;48.820;9.248;2023-01-05T00:21:41;0.30;;;0.30;;
15246;SDS011;7726;48.820;9.248;2023-01-05T00:24:26;0.30;;;0.30;;
15246;SDS011;7726;48.820;9.248;2023-01-05T00:26:55;0.30;;;0.30;;
15246;SDS011;7726;48.820;9.248;2023-01-05T00:29:22;0.40;;;0.30;;
15246;SDS011;7726;48.820;9.248;2023-01-05T00:31:49;0.20;;;0.20;;
15246;SDS011;7726;48.820;9.248;2023-01-05T00:34:16;0.20;;;0.20;;
15246;SDS011;7726;48.820;9.248;2023-01-05T00:36:43;0.23;;;0.23;;
15246;SDS011;7726;48.820;9.248;2023-01-05T00:39:10;1.17;;;0.30;;
15246;SDS011;7726;48.820;9.248;2023-01-05T00:41:37;0.20;;;0.20;;
15246;SDS011;7726;48.820;9.248;2023-01-05T00:44:05;0.47;;;0.47;;
15246;SDS011;7726;48.820;9.248;2023-01-05T00:46:33;0.57;;;0.40;;
15246;SDS011;7726;48.820;9.248;2023-01-05T00:49:00;0.30;;;0.30;;
15246;SDS011;7726;48.820;9.248;2023-01-05T00:51:27;0.33;;;0.23;;
15246;SDS011;7726;48.820;9.248;2023-01-05T00:53:54;0.20;;;0.20;;
15246;SDS011;7726;48.820;9.248;2023-01-05T00:56:21;0.33;;;0.17;;
15246;SDS011;7726;48.820;9.248;2023-01-05T00:58:51;0.30;;;0.30;;
15246;SDS011;7726;48.820;9.248;2023-01-05T01:01:20;0.20;;;0.20;;
15246;SDS011;7726;48.820;9.248;2023-01-05T01:03:47;0.20;;;0.20;;
15246;SDS011;7726;48.820;9.248;2023-01-05T01:06:14;0.20;;;0.20;;
15246;SDS011;7726;48.820;9.248;2023-01-05T01:08:41;0.13;;;0.13;;
15246;SDS011;7726;48.820;9.248;2023-01-05T01:11:09;0.27;;;0.27;;
15246;SDS011;7726;48.820;9.248;2023-01-05T01:13:36;0.20;;;0.10;;
15246;SDS011;7726;48.820;9.248;2023-01-05T01:16:04;0.10;;;0.10;;
15246;SDS011;7726;48.820;9.248;2023-01-05T01:18:33;0.50;;;0.20;;
15246;SDS011;7726;48.820;9.248;2023-01-05T01:21:00;0.20;;;0.20;;
15246;SDS011;7726;48.820;9.248;2023-01-05T01:23:27;0.50;;;0.33;;
15246;SDS011;7726;48.820;9.248;2023-01-05T01:25:54;0.30;;;0.10;;
15246;SDS011;7726;48.820;9.248;2023-01-05T01:28:22;0.20;;;0.20;;
15246;SDS011;7726;48.820;9.248;2023-01-05T01:30:49;0.30;;;0.30;;
15246;SDS011;7726;48.820;9.248;2023-01-05T01:33:16;0.10;;;0.10;;
15246;SDS011;7726;48.820;9.248;2023-01-05T01:35:44;0.17;;;0.17;;
15246;SDS011;7726;48.820;9.248;2023-01-05T01:38:11;0.30;;;0.30;;
15246;SDS011;7726;48.820;9.248;2023-01-05T01:40:39;0.10;;;0.10;;
15246;SDS011;7726;48.820;9.248;2023-01-05T01:43:12;1.13;;;0.20;;
15246;SDS011;7726;48.820;9.248;2023-01-05T01:45:40;0.30;;;0.30;;
15246;SDS011;7726;48.820;9.248;2023-01-05T01:48:07;0.20;;;0.20;;
15246;SDS011;7726;48.820;9.248;2023-01-05T01:50:36;0.10;;;0.10;;
15246;SDS011;7726;48.820;9.248;2023-01-05T01:53:07;0.10;;;0.10;;
15246;SDS011;7726;48.820;9.248;2023-01-05T01:55:35;0.17;;;0.17;;
15246;SDS011;7726;48.820;9.248;2023-01-05T01:58:03;0.20;;;0.20;;
15246;SDS011;7726;48.820;9.248;2023-01-05T02:00:31;0.10;;;0.10;;
15246;SDS011;7726;48.820;9.248;2023-01-05T02:02:58;0.93;;;0.20;;
15246;SDS011;7726;48.820;9.248;2023-01-05T02:05:27;0.13;;;0.10;;
15246;SDS011;7726;48.820;9.248;2023-01-05T02:07:55;0.10;;;0.07;;
15246;SDS011;7726;48.820;9.248;2023-01-05T02:10:26;0.73;;;0.30;;
15246;SDS011;7726;48.820;9.248;2023-01-05T02:13:01;0.57;;;0.20;;
15246;SDS011;7726;48.820;9.248;2023-01-05T02:15:34;0.10;;;0.10;;
15246;SDS011;7726;48.820;9.248;2023-01-05T02:18:06;0.20;;;0.10;;
15246;SDS011;7726;48.820;9.248;2023-01-05T02:20:40;0.07;;;0.07;;
15246;SDS011;7726;48.820;9.248;2023-01-05T02:23:17;0.23;;;0.20;;
15246;SDS011;7726;48.820;9.248;2023-01-05T02:26:03;1.13;;;0.20;;
15246;SDS011;7726;48.820;9.248;2023-01-05T02:28:48;0.10;;;0.10;;
15246;SDS011;7726;48.820;9.248;2023-01-05T02:31:23;0.20;;;0.20;;
15246;SDS011;7726;48.820;9.248;2023-01-05T02:34:03;0.73;;;0.10;;
15246;SDS011;7726;48.820;9.248;2023-01-05T02:36:33;0.37;;;0.10;;
15246;SDS011;7726;48.820;9.248;2023-01-05T02:39:03;0.00;;;0.00;;
15246;SDS011;7726;48.820;9.248;2023-01-05T02:41:34;0.00;;;0.00;;
15246;SDS011;7726;48.820;9.248;2023-01-05T02:44:03;0.90;;;0.10;;
15246;SDS011;7726;48.820;9.248;2023-01-05T02:46:34;0.30;;;0.10;;
15246;SDS011;7726;48.820;9.248;2023-01-05T02:49:01;0.00;;;0.00;;
15246;SDS011;7726;48.820;9.248;2023-01-05T02:51:31;0.50;;;0.17;;
15246;SDS011;7726;48.820;9.248;2023-01-05T02:53:59;0.10;;;0.10;;
15246;SDS011;7726;48.820;9.248;2023-01-05T02:56:28;0.10;;;0.10;;
15246;SDS011;7726;48.820;9.248;2023-01-05T02:58:57;0.10;;;0.10;;
15246;SDS011;7726;48.820;9.248;2023-01-05T03:01:26;0.10;;;0.10;;
15246;SDS011;7726;48.820;9.248;2023-01-05T03:03:56;0.10;;;0.10;;
15246;SDS011;7726;48.820;9.248;2023-01-05T03:06:24;0.10;;;0.10;;
15246;SDS011;7726;48.820;9.248;2023-01-05T03:08:54;0.20;;;0.20;;
15246;SDS011;7726;48.820;9.248;2023-01-05T03:11:23;0.10;;;0.10;;
15246;SDS011;7726;48.820;9.248;2023-01-05T03:14:11;0.30;;;0.20;;
15246;SDS011;7726;48.820;9.248;2023-01-05T03:16:40;0.28;;;0.10;;
15246;SDS011;7726;48.820;9.248;2023-01-05T03:19:11;1.08;;;0.20;;
15246;SDS011;7726;48.820;9.248;2023-01-05T03:21:56;0.20;;;0.20;;
15246;SDS011;7726;48.820;9.248;2023-01-05T03:24:41;0.07;;;0.07;;
15246;SDS011;7726;48.820;9.248;2023-01-05T03:27:27;0.10;;;0.10;;
15246;SDS011;7726;48.820;9.248;2023-01-05T03:30:12;0.13;;;0.13;;
15246;SDS011;7726;48.820;9.248;2023-01-05T03:33:00;0.10;;;0.10;;
15246;SDS011;7726;48.820;9.248;2023-01-05T03:35:47;0.13;;;0.00;;
15246;SDS011;7726;48.820;9.248;2023-01-05T03:38:17;0.20;;;0.20;;
15246;SDS011;7726;48.820;9.248;2023-01-05T03:40:48;0.20;;;0.13;;
15246;SDS011;7726;48.820;9.248;2023-01-05T03:43:16;0.10;;;0.07;;
15246;SDS011;7726;48.820;9.248;2023-01-05T03:45:44;0.10;;;0.10;;
15246;SDS011;7726;48.820;9.248;2023-01-05T03:48:12;1.20;;;0.13;;
15246;SDS011;7726;48.820;9.248;2023-01-05T03:50:39;0.10;;;0.10;;
15246;SDS011;7726;48.820;9.248;2023-01-05T03:53:07;0.25;;;0.10;;
15246;SDS011;7726;48.820;9.248;2023-01-05T03:55:35;1.70;;;0.20;;
15246;SDS011;7726;48.820;9.248;2023-01-05T03:58:02;0.23;;;0.23;;
15246;SDS011;7726;48.820;9.248;2023-01-05T04:00:29;0.17;;;0.17;;
15246;SDS011;7726;48.820;9.248;2023-01-05T04:02:56;0.50;;;0.10;;
15246;SDS011;7726;48.820;9.248;2023-01-05T04:05:23;0.30;;;0.30;;
15246;SDS011;7726;48.820;9.248;2023-01-05T04:07:50;0.10;;;0.10;;
15246;SDS011;7726;48.820;9.248;2023-01-05T04:10:19;0.10;;;0.10;;
15246;SDS011;7726;48.820;9.248;2023-01-05T04:12:46;0.10;;;0.10;;
15246;SDS011;7726;48.820;9.248;2023-01-05T04:15:13;0.10;;;0.10;;
15246;SDS011;7726;48.820;9.248;2023-01-05T04:17:40;0.80;;;0.17;;
15246;SDS011;7726;48.820;9.248;2023-01-05T04:20:08;0.10;;;0.10;;
15246;SDS011;7726;48.820;9.248;2023-01-05T04:22:35;0.30;;;0.20;;
15246;SDS011;7726;48.820;9.248;2023-01-05T04:25:02;0.30;;;0.30;;
15246;SDS011;7726;48.820;9.248;2023-01-05T04:27:31;1.38;;;0.55;;
15246;SDS011;7726;48.820;9.248;2023-01-05T04:29:58;0.10;;;0.10;;
15246;SDS011;7726;48.820;9.248;2023-01-05T04:32:25;1.33;;;0.30;;
15246;SDS011;7726;48.820;9.248;2023-01-05T04:34:52;0.60;;;0.10;;
15246;SDS011;7726;48.820;9.248;2023-01-05T04:37:19;0.30;;;0.30;;
15246;SDS011;7726;48.820;9.248;2023-01-05T04:39:47;0.10;;;0.10;;
15246;SDS011;7726;48.820;9.248;2023-01-05T04:42:14;0.20;;;0.20;;
15246;SDS011;7726;48.820;9.248;2023-01-05T04:44:43;0.43;;;0.23;;
15246;SDS011;7726;48.820;9.248;2023-01-05T04:47:10;0.20;;;0.10;;
15246;SDS011;7726;48.820;9.248;2023-01-05T04:49:37;0.93;;;0.27;;
15246;SDS011;7726;48.820;9.248;2023-01-05T04:52:04;0.82;;;0.10;;
15246;SDS011;7726;48.820;9.248;2023-01-05T04:54:31;0.23;;;0.20;;
15246;SDS011;7726;48.820;9.248;2023-01-05T04:56:58;0.37;;;0.23;;
15246;SDS011;7726;48.820;9.248;2023-01-05T04:59:28;0.20;;;0.20;;
15246;SDS011;7726;48.820;9.248;2023-01-05T05:01:56;0.15;;;0.15;;
15246;SDS011;7726;48.820;9.248;2023-01-05T05:04:23;0.03;;;0.03;;
15246;SDS011;7726;48.820;9.248;2023-01-05T05:06:50;0.20;;;0.20;;
15246;SDS011;7726;48.820;9.248;2023-01-05T05:09:17;0.23;;;0.23;;
15246;SDS011;7726;48.820;9.248;2023-01-05T05:11:45;0.30;;;0.30;;
15246;SDS011;7726;48.820;9.248;2023-01-05T05:14:12;1.35;;;0.40;;
15246;SDS011;7726;48.820;9.248;2023-01-05T05:16:39;0.40;;;0.27;;
15246;SDS011;7726;48.820;9.248;2023-01-05T05:19:09;0.30;;;0.20;;
15246;SDS011;7726;48.820;9.248;2023-01-05T05:21:36;0.93;;;0.20;;
15246;SDS011;7726;48.820;9.248;2023-01-05T05:24:03;0.20;;;0.20;;
15246;SDS011;7726;48.820;9.248;2023-01-05T05:26:30;0.20;;;0.10;;
15246;SDS011;7726;48.820;9.248;2023-01-05T05:28:57;0.17;;;0.17;;
15246;SDS011;7726;48.820;9.248;2023-01-05T05:31:25;0.20;;;0.20;;
15246;SDS011;7726;48.820;9.248;2023-01-05T05:33:52;1.27;;;0.27;;
15246;SDS011;7726;48.820;9.248;2023-01-05T05:36:20;0.20;;;0.20;;
15246;SDS011;7726;48.820;9.248;2023-01-05T05:38:47;0.20;;;0.20;;
15246;SDS011;7726;48.820;9.248;2023-01-05T05:41:14;1.50;;;0.30;;
15246;SDS011;7726;48.820;9.248;2023-01-05T05:43:41;0.13;;;0.10;;
15246;SDS011;7726;48.820;9.248;2023-01-05T05:46:09;0.07;;;0.07;;
15246;SDS011;7726;48.820;9.248;2023-01-05T05:48:36;0.00;;;0.00;;
15246;SDS011;7726;48.820;9.248;2023-01-05T05:51:03;1.23;;;0.17;;
15246;SDS011;7726;48.820;9.248;2023-01-05T05:53:31;0.20;;;0.20;;
15246;SDS011;7726;48.820;9.248;2023-01-05T05:55:58;0.93;;;0.30;;
15246;SDS011;7726;48.820;9.248;2023-01-05T05:58:25;0.93;;;0.40;;
15246;SDS011;7726;48.820;9.248;2023-01-05T06:00:55;0.77;;;0.40;;
15246;SDS011;7726;48.820;9.248;2023-01-05T06:03:25;2.03;;;0.60;;
15246;SDS011;7726;48.820;9.248;2023-01-05T06:05:52;1.17;;;0.57;;
15246;SDS011;7726;48.820;9.248;2023-01-05T06:08:19;1.70;;;0.40;;
15246;SDS011;7726;48.820;9.248;2023-01-05T06:10:49;1.07;;;0.60;;
15246;SDS011;7726;48.820;9.248;2023-01-05T06:13:16;3.07;;;0.90;;
15246;SDS011;7726;48.820;9.248;2023-01-05T06:15:43;3.40;;;0.60;;
15246;SDS011;7726;48.820;9.248;2023-01-05T06:18:10;2.23;;;0.63;;
15246;SDS011;7726;48.820;9.248;2023-01-05T06:20:37;2.40;;;0.67;;
15246;SDS011;7726;48.820;9.248;2023-01-05T06:23:04;3.43;;;0.73;;
15246;SDS011;7726;48.820;9.248;2023-01-05T06:25:32;1.70;;;0.90;;
15246;SDS011;7726;48.820;9.248;2023-01-05T06:28:00;2.53;;;0.90;;
15246;SDS011;7726;48.820;9.248;2023-01-05T06:30:28;5.00;;;1.13;;
15246;SDS011;7726;48.820;9.248;2023-01-05T06:32:55;1.77;;;0.90;;
15246;SDS011;7726;48.820;9.248;2023-01-05T06:35:22;1.70;;;0.67;;
15246;SDS011;7726;48.820;9.248;2023-01-05T06:37:49;4.10;;;0.97;;
15246;SDS011;7726;48.820;9.248;2023-01-05T06:40:16;3.27;;;0.90;;
15246;SDS011;7726;48.820;9.248;2023-01-05T06:42:44;3.00;;;0.83;;
15246;SDS011;7726;48.820;9.248;2023-01-05T06:45:12;1.87;;;0.50;;
15246;SDS011;7726;48.820;9.248;2023-01-05T06:47:41;3.07;;;0.80;;
15246;SDS011;7726;48.820;9.248;2023-01-05T06:50:08;1.93;;;0.73;;
15246;SDS011;7726;48.820;9.248;2023-01-05T06:52:36;3.87;;;1.27;;
15246;SDS011;7726;48.820;9.248;2023-01-05T06:55:04;2.67;;;1.10;;
15246;SDS011;7726;48.820;9.248;2023-01-05T06:57:31;1.03;;;0.90;;
15246;SDS011;7726;48.820;9.248;2023-01-05T07:00:00;2.43;;;0.93;;
15246;SDS011;7726;48.820;9.248;2023-01-05T07:02:29;2.00;;;1.00;;
15246;SDS011;7726;48.820;9.248;2023-01-05T07:04:56;2.50;;;1.07;;
15246;SDS011;7726;48.820;9.248;2023-01-05T07:07:23;4.53;;;0.90;;
15246;SDS011;7726;48.820;9.248;2023-01-05T07:09:50;3.27;;;1.20;;
15246;SDS011;7726;48.820;9.248;2023-01-05T07:12:17;5.20;;;0.80;;
15246;SDS011;7726;48.820;9.248;2023-01-05T07:14:44;3.33;;;0.90;;
15246;SDS011;7726;48.820;9.248;2023-01-05T07:17:11;3.17;;;0.90;;
15246;SDS011;7726;48.820;9.248;2023-01-05T07:19:42;1.13;;;0.70;;
15246;SDS011;7726;48.820;9.248;2023-01-05T07:22:19;3.20;;;0.90;;
15246;SDS011;7726;48.820;9.248;2023-01-05T07:24:46;3.40;;;1.20;;
15246;SDS011;7726;48.820;9.248;2023-01-05T07:27:13;4.43;;;1.20;;
15246;SDS011;7726;48.820;9.248;2023-01-05T07:29:43;2.20;;;0.73;;
15246;SDS011;7726;48.820;9.248;2023-01-05T07:32:10;4.90;;;1.00;;
15246;SDS011;7726;48.820;9.248;2023-01-05T07:34:37;3.00;;;1.00;;
15246;SDS011;7726;48.820;9.248;2023-01-05T07:37:05;5.27;;;1.00;;
15246;SDS011;7726;48.820;9.248;2023-01-05T07:39:32;3.97;;;1.20;;
15246;SDS011;7726;48.820;9.248;2023-01-05T07:41:59;4.00;;;1.37;;
15246;SDS011;7726;48.820;9.248;2023-01-05T07:44:29;3.40;;;1.30;;
15246;SDS011;7726;48.820;9.248;2023-01-05T07:46:58;6.50;;;1.10;;
15246;SDS011;7726;48.820;9.248;2023-01-05T07:49:26;3.17;;;1.00;;
15246;SDS011;7726;48.820;9.248;2023-01-05T07:51:54;3.00;;;1.37;;
15246;SDS011;7726;48.820;9.248;2023-01-05T07:54:22;3.30;;;1.80;;
15246;SDS011;7726;48.820;9.248;2023-01-05T07:56:51;4.87;;;1.50;;
15246;SDS011;7726;48.820;9.248;2023-01-05T07:59:18;5.70;;;1.23;;
15246;SDS011;7726;48.820;9.248;2023-01-05T08:01:45;3.23;;;1.13;;
15246;SDS011;7726;48.820;9.248;2023-01-05T08:04:16;2.53;;;1.07;;
15246;SDS011;7726;48.820;9.248;2023-01-05T08:06:43;2.57;;;1.10;;
15246;SDS011;7726;48.820;9.248;2023-01-05T08:09:10;3.33;;;1.13;;
15246;SDS011;7726;48.820;9.248;2023-01-05T08:11:57;2.80;;;1.00;;
15246;SDS011;7726;48.820;9.248;2023-01-05T08:14:24;3.10;;;1.50;;
15246;SDS011;7726;48.820;9.248;2023-01-05T08:16:50;2.93;;;1.10;;
15246;SDS011;7726;48.820;9.248;2023-01-05T08:19:17;3.70;;;1.03;;
15246;SDS011;7726;48.820;9.248;2023-01-05T08:21:44;5.00;;;1.30;;
15246;SDS011;7726;48.820;9.248;2023-01-05T08:24:11;5.47;;;1.37;;
15246;SDS011;7726;48.820;9.248;2023-01-05T08:26:41;3.87;;;1.27;;
15246;SDS011;7726;48.820;9.248;2023-01-05T08:29:09;4.13;;;1.23;;
15246;SDS011;7726;48.820;9.248;2023-01-05T08:31:37;4.03;;;1.13;;
15246;SDS011;7726;48.820;9.248;2023-01-05T08:34:04;4.60;;;1.23;;
15246;SDS011;7726;48.820;9.248;2023-01-05T08:36:31;7.07;;;1.50;;
15246;SDS011;7726;48.820;9.248;2023-01-05T08:38:59;3.20;;;1.40;;
15246;SDS011;7726;48.820;9.248;2023-01-05T08:41:26;6.43;;;1.80;;
15246;SDS011;7726;48.820;9.248;2023-01-05T08:43:57;3.57;;;1.50;;
15246;SDS011;7726;48.820;9.248;2023-01-05T08:46:26;6.00;;;1.60;;
15246;SDS011;7726;48.820;9.248;2023-01-05T08:48:54;6.40;;;1.43;;
15246;SDS011;7726;48.820;9.248;2023-01-05T08:51:22;5.70;;;1.63;;
15246;SDS011;7726;48.820;9.248;2023-01-05T08:53:49;6.13;;;1.83;;
15246;SDS011;7726;48.820;9.248;2023-01-05T08:56:16;7.43;;;1.83;;
15246;SDS011;7726;48.820;9.248;2023-01-05T08:58:44;3.77;;;1.13;;
15246;SDS011;7726;48.820;9.248;2023-01-05T09:01:12;6.27;;;1.40;;
15246;SDS011;7726;48.820;9.248;2023-01-05T09:03:41;3.40;;;1.13;;
15246;SDS011;7726;48.820;9.248;2023-01-05T09:06:08;5.33;;;1.40;;
15246;SDS011;7726;48.820;9.248;2023-01-05T09:08:36;3.63;;;1.10;;
15246;SDS011;7726;48.820;9.248;2023-01-05T09:11:04;3.93;;;1.30;;
15246;SDS011;7726;48.820;9.248;2023-01-05T09:13:32;5.53;;;1.40;;
15246;SDS011;7726;48.820;9.248;2023-01-05T09:16:02;3.33;;;1.37;;
15246;SDS011;7726;48.820;9.248;2023-01-05T09:18:29;5.00;;;1.23;;
15246;SDS011;7726;48.820;9.248;2023-01-05T09:20:58;6.13;;;1.53;;
15246;SDS011;7726;48.820;9.248;2023-01-05T09:23:25;5.07;;;1.70;;
15246;SDS011;7726;48.820;9.248;2023-01-05T09:25:52;5.87;;;1.37;;
15246;SDS011;7726;48.820;9.248;2023-01-05T09:28:19;6.40;;;1.63;;
15246;SDS011;7726;48.820;9.248;2023-01-05T09:30:46;5.90;;;1.63;;
15246;SDS011;7726;48.820;9.248;2023-01-05T09:33:13;6.93;;;1.60;;
15246;SDS011;7726;48.820;9.248;2023-01-05T09:35:41;4.00;;;1.70;;
15246;SDS011;7726;48.820;9.248;2023-01-05T09:38:09;5.57;;;1.50;;
15246;SDS011;7726;48.820;9.248;2023-01-05T09:40:38;5.37;;;2.00;;
15246;SDS011;7726;48.820;9.248;2023-01-05T09:43:07;5.93;;;2.00;;
15246;SDS011;7726;48.820;9.248;2023-01-05T09:45:37;6.07;;;1.80;;
15246;SDS011;7726;48.820;9.248;2023-01-05T09:48:04;6.53;;;1.60;;
15246;SDS011;7726;48.820;9.248;2023-01-05T09:50:31;9.13;;;1.80;;
15246;SDS011;7726;48.820;9.248;2023-01-05T09:52:59;7.53;;;1.80;;
15246;SDS011;7726;48.820;9.248;2023-01-05T09:55:28;7.33;;;1.90;;
15246;SDS011;7726;48.820;9.248;2023-01-05T09:57:57;7.47;;;2.03;;
15246;SDS011;7726;48.820;9.248;2023-01-05T10:00:25;7.97;;;2.10;;
15246;SDS011;7726;48.820;9.248;2023-01-05T10:02:54;5.20;;;2.10;;
15246;SDS011;7726;48.820;9.248;2023-01-05T10:05:23;8.30;;;2.23;;
15246;SDS011;7726;48.820;9.248;2023-01-05T10:07:52;8.83;;;2.40;;
15246;SDS011;7726;48.820;9.248;2023-01-05T10:10:23;5.23;;;2.07;;
15246;SDS011;7726;48.820;9.248;2023-01-05T10:12:54;10.07;;;2.50;;
15246;SDS011;7726;48.820;9.248;2023-01-05T10:15:28;6.77;;;1.70;;
15246;SDS011;7726;48.820;9.248;2023-01-05T10:17:56;6.17;;;1.87;;
15246;SDS011;7726;48.820;9.248;2023-01-05T10:20:26;9.23;;;1.87;;
15246;SDS011;7726;48.820;9.248;2023-01-05T10:22:57;9.27;;;2.63;;
15246;SDS011;7726;48.820;9.248;2023-01-05T10:25:28;7.20;;;1.93;;
15246;SDS011;7726;48.820;9.248;2023-01-05T10:28:00;9.73;;;2.20;;
15246;SDS011;7726;48.820;9.248;2023-01-05T10:30:33;5.60;;;1.70;;
15246;SDS011;7726;48.820;9.248;2023-01-05T10:33:08;5.30;;;1.67;;
15246;SDS011;7726;48.820;9.248;2023-01-05T10:35:42;8.10;;;2.60;;
15246;SDS011;7726;48.820;9.248;2023-01-05T10:38:13;7.70;;;2.30;;
15246;SDS011;7726;48.820;9.248;2023-01-05T10:40:46;10.13;;;2.53;;
15246;SDS011;7726;48.820;9.248;2023-01-05T10:43:24;6.87;;;2.00;;
15246;SDS011;7726;48.820;9.248;2023-01-05T10:45:55;7.75;;;2.00;;
15246;SDS011;7726;48.820;9.248;2023-01-05T10:48:25;10.50;;;2.20;;
15246;SDS011;7726;48.820;9.248;2023-01-05T10:50:54;6.70;;;2.47;;
15246;SDS011;7726;48.820;9.248;2023-01-05T10:53:22;9.90;;;2.80;;
15246;SDS011;7726;48.820;9.248;2023-01-05T10:55:53;8.63;;;2.70;;
15246;SDS011;7726;48.820;9.248;2023-01-05T10:58:25;7.90;;;1.93;;
15246;SDS011;7726;48.820;9.248;2023-01-05T11:00:56;7.00;;;1.80;;
15246;SDS011;7726;48.820;9.248;2023-01-05T11:03:26;12.25;;;1.80;;
15246;SDS011;7726;48.820;9.248;2023-01-05T11:05:54;7.87;;;1.83;;
15246;SDS011;7726;48.820;9.248;2023-01-05T11:08:24;8.07;;;2.30;;
15246;SDS011;7726;48.820;9.248;2023-01-05T11:10:54;9.93;;;2.47;;
15246;SDS011;7726;48.820;9.248;2023-01-05T11:13:26;7.32;;;2.05;;
15246;SDS011;7726;48.820;9.248;2023-01-05T11:15:55;6.28;;;1.90;;
15246;SDS011;7726;48.820;9.248;2023-01-05T11:18:24;5.97;;;2.07;;
15246;SDS011;7726;48.820;9.248;2023-01-05T11:21:10;10.00;;;1.90;;
15246;SDS011;7726;48.820;9.248;2023-01-05T11:23:39;8.63;;;2.33;;
15246;SDS011;7726;48.820;9.248;2023-01-05T11:29:11;6.72;;;1.70;;
15246;SDS011;7726;48.820;9.248;2023-01-05T11:31:40;6.88;;;1.70;;
15246;SDS011;7726;48.820;9.248;2023-01-05T11:34:13;9.40;;;2.17;;
15246;SDS011;7726;48.820;9.248;2023-01-05T11:36:41;9.18;;;1.98;;
15246;SDS011;7726;48.820;9.248;2023-01-05T11:39:15;6.57;;;1.53;;
15246;SDS011;7726;48.820;9.248;2023-01-05T11:41:44;6.53;;;2.22;;
15246;SDS011;7726;48.820;9.248;2023-01-05T11:44:14;8.30;;;2.00;;
15246;SDS011;7726;48.820;9.248;2023-01-05T11:46:44;6.80;;;2.20;;
15246;SDS011;7726;48.820;9.248;2023-01-05T11:49:11;7.37;;;2.57;;
15246;SDS011;7726;48.820;9.248;2023-01-05T11:51:43;4.50;;;1.77;;
15246;SDS011;7726;48.820;9.248;2023-01-05T11:54:27;3.80;;;2.00;;
15246;SDS011;7726;48.820;9.248;2023-01-05T11:57:13;5.85;;;1.95;;
15246;SDS011;7726;48.820;9.248;2023-01-05T11:59:42;9.77;;;2.17;;
15246;SDS011;7726;48.820;9.248;2023-01-05T12:02:21;6.75;;;2.15;;
15246;SDS011;7726;48.820;9.248;2023-01-05T12:04:59;6.20;;;2.30;;
15246;SDS011;7726;48.820;9.248;2023-01-05T12:07:29;5.72;;;2.53;;
15246;SDS011;7726;48.820;9.248;2023-01-05T12:09:58;9.30;;;2.17;;
15246;SDS011;7726;48.820;9.248;2023-01-05T12:12:34;9.47;;;2.50;;
15246;SDS011;7726;48.820;9.248;2023-01-05T12:15:24;9.00;;;2.03;;
15246;SDS011;7726;48.820;9.248;2023-01-05T12:17:56;10.15;;;2.45;;
15246;SDS011;7726;48.820;9.248;2023-01-05T12:20:30;7.33;;;2.63;;
15246;SDS011;7726;48.820;9.248;2023-01-05T12:23:03;10.07;;;2.78;;
15246;SDS011;7726;48.820;9.248;2023-01-05T12:25:37;10.23;;;3.00;;
15246;SDS011;7726;48.820;9.248;2023-01-05T12:28:15;7.17;;;2.00;;
15246;SDS011;7726;48.820;9.248;2023-01-05T12:30:48;9.57;;;2.47;;
15246;SDS011;7726;48.820;9.248;2023-01-05T12:33:20;10.02;;;2.35;;
15246;SDS011;7726;48.820;9.248;2023-01-05T12:36:14;9.43;;;2.40;;
15246;SDS011;7726;48.820;9.248;2023-01-05T12:38:46;8.45;;;2.30;;
15246;SDS011;7726;48.820;9.248;2023-01-05T12:41:30;10.07;;;2.87;;
15246;SDS011;7726;48.820;9.248;2023-01-05T12:44:05;9.07;;;2.38;;
15246;SDS011;7726;48.820;9.248;2023-01-05T12:46:39;12.07;;;2.40;;
15246;SDS011;7726;48.820;9.248;2023-01-05T12:49:13;6.38;;;2.35;;
15246;SDS011;7726;48.820;9.248;2023-01-05T12:51:44;6.65;;;2.20;;
15246;SDS011;7726;48.820;9.248;2023-01-05T12:54:14;9.77;;;2.65;;
15246;SDS011;7726;48.820;9.248;2023-01-05T12:56:45;8.50;;;2.25;;
15246;SDS011;7726;48.820;9.248;2023-01-05T12:59:15;7.30;;;2.10;;
15246;SDS011;7726;48.820;9.248;2023-01-05T13:01:45;9.32;;;2.40;;
15246;SDS011;7726;48.820;9.248;2023-01-05T13:04:22;8.85;;;2.10;;
15246;SDS011;7726;48.820;9.248;2023-01-05T13:06:51;9.57;;;2.25;;
15246;SDS011;7726;48.820;9.248;2023-01-05T13:09:19;9.02;;;2.30;;
15246;SDS011;7726;48.820;9.248;2023-01-05T13:11:47;8.40;;;1.90;;
15246;SDS011;7726;48.820;9.248;2023-01-05T13:14:18;5.88;;;1.90;;
15246;SDS011;7726;48.820;9.248;2023-01-05T13:16:47;7.85;;;2.60;;
15246;SDS011;7726;48.820;9.248;2023-01-05T13:19:19;10.50;;;2.63;;
15246;SDS011;7726;48.820;9.248;2023-01-05T13:21:47;7.87;;;2.13;;
15246;SDS011;7726;48.820;9.248;2023-01-05T13:24:15;8.98;;;2.30;;
15246;SDS011;7726;48.820;9.248;2023-01-05T13:26:47;9.93;;;2.53;;
15246;SDS011;7726;48.820;9.248;2023-01-05T13:29:15;11.70;;;2.95;;
15246;SDS011;7726;48.820;9.248;2023-01-05T13:31:59;9.65;;;2.72;;
15246;SDS011;7726;48.820;9.248;2023-01-05T13:34:49;11.10;;;3.08;;
15246;SDS011;7726;48.820;9.248;2023-01-05T13:37:31;11.48;;;2.55;;
15246;SDS011;7726;48.820;9.248;2023-01-05T13:40:12;11.68;;;2.75;;
15246;SDS011;7726;48.820;9.248;2023-01-05T13:42:55;10.98;;;2.55;;
15246;SDS011;7726;48.820;9.248;2023-01-05T13:45:34;9.95;;;2.80;;
15246;SDS011;7726;48.820;9.248;2023-01-05T13:48:26;9.35;;;2.08;;
15246;SDS011;7726;48.820;9.248;2023-01-05T13:51:04;8.23;;;1.95;;
15246;SDS011;7726;48.820;9.248;2023-01-05T13:53:34;11.13;;;2.42;;
15246;SDS011;7726;48.820;9.248;2023-01-05T13:56:04;10.18;;;2.50;;
15246;SDS011;7726;48.820;9.248;2023-01-05T13:58:37;11.95;;;2.40;;
15246;SDS011;7726;48.820;9.248;2023-01-05T14:01:06;11.15;;;2.42;;
15246;SDS011;7726;48.820;9.248;2023-01-05T14:03:36;6.85;;;2.10;;
15246;SDS011;7726;48.820;9.248;2023-01-05T14:06:05;8.90;;;2.45;;
15246;SDS011;7726;48.820;9.248;2023-01-05T14:08:34;9.85;;;2.42;;
15246;SDS011;7726;48.820;9.248;2023-01-05T14:11:06;10.85;;;2.30;;
15246;SDS011;7726;48.820;9.248;2023-01-05T14:13:41;6.57;;;2.35;;
15246;SDS011;7726;48.820;9.248;2023-01-05T14:19:01;13.07;;;2.60;;
15246;SDS011;7726;48.820;9.248;2023-01-05T14:21:42;7.90;;;2.40;;
15246;SDS011;7726;48.820;9.248;2023-01-05T14:24:23;9.38;;;2.17;;
15246;SDS011;7726;48.820;9.248;2023-01-05T14:27:00;6.13;;;2.23;;
15246;SDS011;7726;48.820;9.248;2023-01-05T14:29:57;11.37;;;3.27;;
15246;SDS011;7726;48.820;9.248;2023-01-05T14:32:24;4.60;;;1.73;;
15246;SDS011;7726;48.820;9.248;2023-01-05T14:34:54;9.80;;;2.27;;
15246;SDS011;7726;48.820;9.248;2023-01-05T14:37:22;10.50;;;2.60;;
15246;SDS011;7726;48.820;9.248;2023-01-05T14:39:50;7.47;;;2.03;;
15246;SDS011;7726;48.820;9.248;2023-01-05T14:42:24;8.77;;;2.00;;
15246;SDS011;7726;48.820;9.248;2023-01-05T14:44:56;10.47;;;2.30;;
15246;SDS011;7726;48.820;9.248;2023-01-05T14:47:34;9.93;;;2.47;;
15246;SDS011;7726;48.820;9.248;2023-01-05T14:50:04;7.80;;;2.40;;
15246;SDS011;7726;48.820;9.248;2023-01-05T14:55:19;9.38;;;2.63;;
15246;SDS011;7726;48.820;9.248;2023-01-05T14:57:47;11.32;;;2.30;;
15246;SDS011;7726;48.820;9.248;2023-01-05T15:00:15;9.93;;;2.63;;
15246;SDS011;7726;48.820;9.248;2023-01-05T15:02:44;11.77;;;2.60;;
15246;SDS011;7726;48.820;9.248;2023-01-05T15:05:15;11.43;;;2.73;;
15246;SDS011;7726;48.820;9.248;2023-01-05T15:07:44;9.37;;;2.53;;
15246;SDS011;7726;48.820;9.248;2023-01-05T15:10:16;14.17;;;2.70;;
15246;SDS011;7726;48.820;9.248;2023-01-05T15:12:52;11.47;;;2.47;;
15246;SDS011;7726;48.820;9.248;2023-01-05T15:15:33;10.65;;;2.85;;
15246;SDS011;7726;48.820;9.248;2023-01-05T15:18:18;6.37;;;2.10;;
15246;SDS011;7726;48.820;9.248;2023-01-05T15:23:44;9.07;;;2.40;;
15246;SDS011;7726;48.820;9.248;2023-01-05T15:26:20;8.38;;;2.35;;
15246;SDS011;7726;48.820;9.248;2023-01-05T15:28:58;9.17;;;2.57;;
15246;SDS011;7726;48.820;9.248;2023-01-05T15:31:32;8.18;;;2.53;;